Minot, ND

8:43 AM CDT on March 29, 2015 (GMT -0500)
Why Not Minot | | Change Station
CLOSE
Current Station
Personal Weather Station
Location: Minot, ND
Elevation: 1759 ft
Nearby Weather Stations
Active Advisory: Flood Warning Active Notice: Record Report, Public Information Statement

Elev 1759 ft 48.22 °N, 101.30 °W | Updated 2 minutes ago

Clear
Clear
39.2 °F
Feels Like 37 °F
N
3.2
Wind Variable Wind from West

Today
High -- | Low -- °F
--% Chance of Precip.
Yesterday
High -- | Low -- °F
Precip. -- in
7:29 AM 8:10 PM
Waxing Gibbous, 71% visible
Pressure 29.96 in
Visibility 10.0 miles
Clouds Clear
Windchill 37 °F
Dew Point 34 °F
Humidity 80%
Rainfall 0.03 in
Snow Depth Not available.
UV 0 out of 12
Pollen 3.40 out of 12
Air Quality Not available.
Flu Activity Not available.
METAR KMOT 291254Z 28021G27KT 10SM CLR 02/M01 A2994 RMK AO2 PK WND 28028/1243 SLP145 T00221006

More Conditions Fewer Conditions

Pressure 29.96 in
Visibility 10.0 miles
Clouds Clear
Windchill 37 °F
Dew Point 34 °F
Humidity 80%
Rainfall 0.03 in
Snow Depth Not available.
UV 0 out of 12
Pollen 3.40 out of 12
Air Quality Not available.
Flu Activity Not available.
METAR KMOT 291254Z 28021G27KT 10SM CLR 02/M01 A2994 RMK AO2 PK WND 28028/1243 SLP145 T00221006

More Conditions Fewer Conditions

10-Day Weather Forecast

Almanac

Astronomy

Mar. 29, 2015 Rise Set
Actual Time
Civil Twilight
Nautical Twilight
Astronomical Twilight
Moon
Length of Visible Light
Length of Day
Tomorrow will be .
, % of the Moon is Illuminated

Today's Extremes

State Highs State Lows

Community

WunderPhotos

Upload Photos

1,809,234 photos uploaded!

WunderBlogs® & News

Nearby

Air Quality

  Air Quality AQ Index Pollutant
Not available.

Snow Depth

Station Depth Elevation

Earthquake Activity

City Distance Mag. Time & Date
Minimum magnitude displayed is 2.5.

Coastal Water Temperatures

Place Temperature

Stations

Nearby Weather Stations

Station Location Temp. Windchill Dew Point Humidity Wind Precip. Elev Updated Type
                   
Flood Warning
Statement as of 9:43 AM CDT on March 28, 2015

The Flood Warning continues for the Souris river near Foxholm.
* Until further notice.
* At 9:15 am Saturday the stage was 11.8 feet.
* Flood stage is 10.0 feet.
* Minor flooding is occurring and minor flooding is forecast.
* Forecast... the river will continue rising to near 12.2 feet by
Thursday morning. Additional rises may be possible thereafter.
* Impact... at 12.0 feet... rural flooding begins.


             Fld observed forecasts (7am)
location stg stg day/time sun Mon Tue Wed Thu

Souris river basin
Foxholm 10 11.8 Sat 9 am 11.9 12.0 12.0 12.1 12.2


Lat... Lon 4845 10159 4845 10155 4843 10151 4828 10140
      4827 10142 4837 10152